AirNav   Air Wisconsin Up To $57,000 Bonus
 
 1105 users online  

K26 Carrollton Memorial Airport
Carrollton, Missouri, USA

GOING TO CARROLLTON?


FAA INFORMATION EFFECTIVE 20 MAY 2021

Location

FAA Identifier: K26
Lat/Long: 39-18-43.8000N 093-30-23.6000W
39-18.730000N 093-30.393333W
39.3121667,-93.5065556
(estimated)
Elevation: 670 ft. / 204 m (estimated)
Variation: 04E (1985)
From city: 3 miles S of CARROLLTON, MO
Time zone: UTC -5 (UTC -6 during Standard Time)
Zip code: 64633

Airport Operations

Airport use: Open to the public
Activation date: 07/1963
Control tower: no
ARTCC: KANSAS CITY CENTER
FSS: COLUMBIA FLIGHT SERVICE STATION
NOTAMs facility: COU (NOTAM-D service available)
Attendance: UNATNDD
Wind indicator: lighted
Segmented circle: no
Beacon: white-green (lighted land airport)
DUSK-DAWN. MIRL RY 18/36 PRESET ON LOW INTST.

Airport Communications

CTAF: 122.9
WX AWOS-3 at MHL (19 nm SE): 118.675 (660-886-9130)

Nearby radio navigation aids

VOR radial/distance  VOR name  Freq  Var
BQSr135/25.6BRAYMER VOR/DME111.2003E
ANXr059/31.7NAPOLEON VORTAC114.0007E

Airport Services

Fuel available: 100LL
100LL:SELF-SERVE FUEL WITH CREDIT CARD.
Parking: hangars and tiedowns
Airframe service: NONE
Powerplant service: NONE

Runway Information

Runway 18/36

Dimensions: 2600 x 50 ft. / 792 x 15 m
Surface: asphalt/aggregate friction seal coat, in excellent condition
Runway edge lights: medium intensity
RUNWAY 18  RUNWAY 36
Latitude: 39-18.944798N39-18.516428N
Longitude: 093-30.390040W093-30.395758W
Elevation: 668.0 ft.670.0 ft.
Traffic pattern: leftleft
Runway heading: 177 magnetic, 181 true357 magnetic, 001 true
Markings: basic, in good conditionbasic, in good condition
Obstructions: 17 ft. brush, 300 ft. from runway, 120 ft. left of centerline, 5:1 slope to clearnone

Airport Ownership and Management from official FAA records

Ownership: Publicly-owned
Owner: CITY OF CARROLLTON
206 W. WASHINGTON AVENUE
CARROLLTON, MO 64633
Phone 660-542-1414
Manager: DAVE HEDDINGS
206 W. WASHINGTON
CARROLLTON, MO 64633
Phone 660-631-0868
ARPRT BOARD CHAIRMAN.

Airport Operational Statistics

Aircraft based on the field: 12
Single engine airplanes: 12
    
Aircraft operations: avg 93/week *
74% transient general aviation
25% local general aviation
1% military
* for 12-month period ending 31 December 2017

Additional Remarks

LOW LEVEL CROPS WITHIN 60 FT OF RY CNTRLN.
FOR CD CTC KANSAS CITY ARTCC AT 913-254-8508.

Instrument Procedures

There are no published instrument procedures at K26.

Some nearby airports with instrument procedures:

KHIG - Higginsville Industrial Municipal Airport (16 nm SW)
KMHL - Marshall Memorial Municipal Airport (19 nm SE)
KCHT - Chillicothe Municipal Airport (28 nm N)
3EX - Excelsior Springs Memorial Airport (32 nm W)
KRCM - Skyhaven Airport (35 nm SW)
 
Loc | Ops | Rwys | IFR | FBO | Links
Com | Nav | Svcs | Stats | Notes
Area around K26 (Carrollton Memorial Airport)
 
Road maps at: MapQuest Bing Google
 
Aerial photo
WARNING: Photo may not be current or correct
Aerial photo of K26 (Carrollton Memorial Airport)
Do you have a better or more recent aerial photo of Carrollton Memorial Airport that you would like to share? If so, please send us your photo.

 
Sectional chart

 
Airport distance calculator
Flying to Carrollton Memorial Airport? Find the distance to fly.

From to K26

Sunrise and sunset
Times for 13-Jun-2021
 Local
(UTC-5)
 Zulu
(UTC)
Morning civil twilight05:1510:15
Sunrise05:4810:48
Sunset20:4001:40
Evening civil twilight21:1302:13

Current date and time
Zulu (UTC)  13-Jun-2021 17:07:30
Local (UTC-5)  13-Jun-2021 12:07:30
 
METAR
KMHL 
19nm SE 
131655Z AUTO 06008KT 10SM CLR 28/12 A3009 RMK AO2
KCDJ 
30nm N 
131652Z AUTO 00000KT 30/11 A3010 RMK AO1 SLP179 T03000111
KRCM 
35nm SW 
131655Z AUTO 06007KT 10SM CLR 28/12 A3009 RMK AO2
KSZL 
36nm S 
131656Z 04008KT 10SM CLR 29/07 A3005 RMK AO2A SLP171 T02920065 $
KGPH 
37nm W 
131555Z AUTO 11003KT 10SM 28/11 A3010 RMK AO2
TAF
KSZL 
36nm S 
131100Z 1311/1417 35006KT 9999 SKC QNH2999INS BECMG 1314/1315 05009KT 9999 FEW050 QNH2994INS BECMG 1323/1324 VRB06KT 9999 SKC QNH2993INS BECMG 1407/1408 27006KT 9999 SKC QNH2997INS TX32/1321Z TN18/1311Z
NOTAMs
Click for the latest NOTAMs
NOTAMs are issued by the DoD/FAA and will open in a separate window not controlled by AirNav.

 

 
 

FBO, Fuel Providers, and Aircraft Ground Support

  
 Business Name 
 
 Contact 
 
 Services / Description 
 
Fuel Prices
 
Comments
  
Carrollton Memorial Airport 660-542-1414 Airport management, Aviation fuel, Aircraft parking (ramp or tiedown), Pilots lounge / snooze room, Restrooms

More info about Carrollton Memorial Airport
independent
100LL
SS $4.30 
 Updated 11-Jun-2021
 
   write
SS=Self service
Update Fuel Prices
 

Would you like to see your business listed on this page?

 If your business provides an interesting product or service to pilots, flight crews, aircraft, or users of the Carrollton Memorial Airport, you should consider listing it here.  To start the listing process, click on the button below
 
Add a business
 

Other Pages about Carrollton Memorial Airport

Update a link
 
Copyright © AirNav, LLC. All rights reserved. Privacy Policy  Contact